sensor_id;sensor_type;location;lat;lon;timestamp;P1;durP1;ratioP1;P2;durP2;ratioP2
11078;SDS011;5592;49.234;7.268;2022-10-16T00:01:56;1.30;;;1.20;;
11078;SDS011;5592;49.234;7.268;2022-10-16T00:04:21;4.70;;;1.10;;
11078;SDS011;5592;49.234;7.268;2022-10-16T00:06:47;4.27;;;1.30;;
11078;SDS011;5592;49.234;7.268;2022-10-16T00:09:12;1.53;;;1.43;;
11078;SDS011;5592;49.234;7.268;2022-10-16T00:11:39;1.30;;;1.20;;
11078;SDS011;5592;49.234;7.268;2022-10-16T00:14:06;3.03;;;1.20;;
11078;SDS011;5592;49.234;7.268;2022-10-16T00:16:34;2.57;;;1.67;;
11078;SDS011;5592;49.234;7.268;2022-10-16T00:19:00;4.00;;;1.60;;
11078;SDS011;5592;49.234;7.268;2022-10-16T00:21:27;2.30;;;1.03;;
11078;SDS011;5592;49.234;7.268;2022-10-16T00:23:55;1.47;;;1.20;;
11078;SDS011;5592;49.234;7.268;2022-10-16T00:26:22;1.53;;;1.27;;
11078;SDS011;5592;49.234;7.268;2022-10-16T00:28:49;2.13;;;1.90;;
11078;SDS011;5592;49.234;7.268;2022-10-16T00:31:16;2.20;;;1.10;;
11078;SDS011;5592;49.234;7.268;2022-10-16T00:33:43;1.27;;;1.13;;
11078;SDS011;5592;49.234;7.268;2022-10-16T00:36:10;3.40;;;0.93;;
11078;SDS011;5592;49.234;7.268;2022-10-16T00:38:38;1.13;;;0.90;;
11078;SDS011;5592;49.234;7.268;2022-10-16T00:41:04;1.37;;;0.90;;
11078;SDS011;5592;49.234;7.268;2022-10-16T00:46:07;9.50;;;1.10;;
11078;SDS011;5592;49.234;7.268;2022-10-16T00:51:41;1.30;;;0.93;;
11078;SDS011;5592;49.234;7.268;2022-10-16T00:54:13;1.33;;;1.17;;
11078;SDS011;5592;49.234;7.268;2022-10-16T00:56:45;5.60;;;1.07;;
11078;SDS011;5592;49.234;7.268;2022-10-16T00:59:23;5.70;;;1.00;;
11078;SDS011;5592;49.234;7.268;2022-10-16T01:01:51;4.20;;;1.10;;
11078;SDS011;5592;49.234;7.268;2022-10-16T01:04:18;1.90;;;0.93;;
11078;SDS011;5592;49.234;7.268;2022-10-16T01:12:30;1.20;;;1.00;;
11078;SDS011;5592;49.234;7.268;2022-10-16T01:15:11;3.47;;;1.17;;
11078;SDS011;5592;49.234;7.268;2022-10-16T01:17:50;1.83;;;1.13;;
11078;SDS011;5592;49.234;7.268;2022-10-16T01:20:27;2.73;;;0.97;;
11078;SDS011;5592;49.234;7.268;2022-10-16T01:23:01;2.17;;;1.10;;
11078;SDS011;5592;49.234;7.268;2022-10-16T01:25:31;2.00;;;1.00;;
11078;SDS011;5592;49.234;7.268;2022-10-16T01:28:19;1.03;;;1.00;;
11078;SDS011;5592;49.234;7.268;2022-10-16T01:30:49;1.67;;;1.00;;
11078;SDS011;5592;49.234;7.268;2022-10-16T01:33:22;2.90;;;1.20;;
11078;SDS011;5592;49.234;7.268;2022-10-16T01:35:54;3.20;;;1.40;;
11078;SDS011;5592;49.234;7.268;2022-10-16T01:41:09;1.10;;;1.00;;
11078;SDS011;5592;49.234;7.268;2022-10-16T01:43:43;1.97;;;1.00;;
11078;SDS011;5592;49.234;7.268;2022-10-16T01:46:18;1.10;;;1.00;;
11078;SDS011;5592;49.234;7.268;2022-10-16T01:48:46;1.10;;;1.00;;
11078;SDS011;5592;49.234;7.268;2022-10-16T01:51:13;3.63;;;1.30;;
11078;SDS011;5592;49.234;7.268;2022-10-16T01:53:41;1.53;;;1.00;;
11078;SDS011;5592;49.234;7.268;2022-10-16T01:56:11;1.23;;;1.13;;
11078;SDS011;5592;49.234;7.268;2022-10-16T01:58:40;2.40;;;1.03;;
11078;SDS011;5592;49.234;7.268;2022-10-16T02:01:10;4.13;;;1.27;;
11078;SDS011;5592;49.234;7.268;2022-10-16T02:03:40;7.73;;;1.40;;
11078;SDS011;5592;49.234;7.268;2022-10-16T02:06:07;1.57;;;1.10;;
11078;SDS011;5592;49.234;7.268;2022-10-16T02:08:33;1.70;;;1.10;;
11078;SDS011;5592;49.234;7.268;2022-10-16T02:11:00;1.63;;;1.13;;
11078;SDS011;5592;49.234;7.268;2022-10-16T02:13:30;1.77;;;0.90;;
11078;SDS011;5592;49.234;7.268;2022-10-16T02:16:02;4.60;;;1.07;;
11078;SDS011;5592;49.234;7.268;2022-10-16T02:18:28;0.83;;;0.83;;
11078;SDS011;5592;49.234;7.268;2022-10-16T02:21:03;3.93;;;1.20;;
11078;SDS011;5592;49.234;7.268;2022-10-16T02:23:40;4.50;;;1.27;;
11078;SDS011;5592;49.234;7.268;2022-10-16T02:26:12;4.40;;;1.13;;
11078;SDS011;5592;49.234;7.268;2022-10-16T02:28:45;3.13;;;1.30;;
11078;SDS011;5592;49.234;7.268;2022-10-16T02:31:18;3.73;;;1.40;;
11078;SDS011;5592;49.234;7.268;2022-10-16T02:33:49;5.20;;;1.40;;
11078;SDS011;5592;49.234;7.268;2022-10-16T02:36:16;4.47;;;1.20;;
11078;SDS011;5592;49.234;7.268;2022-10-16T02:38:42;3.37;;;1.40;;
11078;SDS011;5592;49.234;7.268;2022-10-16T02:41:08;5.00;;;1.27;;
11078;SDS011;5592;49.234;7.268;2022-10-16T02:43:34;3.13;;;1.67;;
11078;SDS011;5592;49.234;7.268;2022-10-16T02:46:00;2.60;;;1.70;;
11078;SDS011;5592;49.234;7.268;2022-10-16T02:48:26;5.67;;;2.20;;
11078;SDS011;5592;49.234;7.268;2022-10-16T02:50:51;3.63;;;1.93;;
11078;SDS011;5592;49.234;7.268;2022-10-16T02:53:17;7.30;;;2.10;;
11078;SDS011;5592;49.234;7.268;2022-10-16T02:55:43;4.83;;;1.87;;
11078;SDS011;5592;49.234;7.268;2022-10-16T02:58:08;6.40;;;1.60;;
11078;SDS011;5592;49.234;7.268;2022-10-16T03:00:34;1.97;;;1.47;;
11078;SDS011;5592;49.234;7.268;2022-10-16T03:02:59;5.23;;;1.40;;
11078;SDS011;5592;49.234;7.268;2022-10-16T03:05:25;2.50;;;1.00;;
11078;SDS011;5592;49.234;7.268;2022-10-16T03:07:51;5.20;;;1.73;;
11078;SDS011;5592;49.234;7.268;2022-10-16T03:10:17;7.77;;;1.80;;
11078;SDS011;5592;49.234;7.268;2022-10-16T03:12:43;4.50;;;1.57;;
11078;SDS011;5592;49.234;7.268;2022-10-16T03:15:09;2.80;;;1.30;;
11078;SDS011;5592;49.234;7.268;2022-10-16T03:17:35;2.30;;;1.27;;
11078;SDS011;5592;49.234;7.268;2022-10-16T03:20:01;1.47;;;1.30;;
11078;SDS011;5592;49.234;7.268;2022-10-16T03:22:27;2.90;;;1.10;;
11078;SDS011;5592;49.234;7.268;2022-10-16T03:24:52;4.80;;;1.60;;
11078;SDS011;5592;49.234;7.268;2022-10-16T03:27:18;3.13;;;1.23;;
11078;SDS011;5592;49.234;7.268;2022-10-16T03:29:43;3.70;;;1.27;;
11078;SDS011;5592;49.234;7.268;2022-10-16T03:32:09;5.70;;;1.10;;
11078;SDS011;5592;49.234;7.268;2022-10-16T03:34:35;3.23;;;1.30;;
11078;SDS011;5592;49.234;7.268;2022-10-16T03:37:00;4.30;;;1.53;;
11078;SDS011;5592;49.234;7.268;2022-10-16T03:39:26;1.30;;;1.20;;
11078;SDS011;5592;49.234;7.268;2022-10-16T03:41:52;3.40;;;2.30;;
11078;SDS011;5592;49.234;7.268;2022-10-16T03:44:17;2.37;;;2.17;;
11078;SDS011;5592;49.234;7.268;2022-10-16T03:46:46;6.77;;;1.47;;
11078;SDS011;5592;49.234;7.268;2022-10-16T03:49:11;3.20;;;1.30;;
11078;SDS011;5592;49.234;7.268;2022-10-16T03:51:37;2.83;;;1.50;;
11078;SDS011;5592;49.234;7.268;2022-10-16T03:54:02;5.43;;;1.67;;
11078;SDS011;5592;49.234;7.268;2022-10-16T03:56:28;5.93;;;1.40;;
11078;SDS011;5592;49.234;7.268;2022-10-16T03:58:53;1.53;;;1.17;;
11078;SDS011;5592;49.234;7.268;2022-10-16T04:01:19;1.63;;;0.93;;
11078;SDS011;5592;49.234;7.268;2022-10-16T04:03:45;1.10;;;1.00;;
11078;SDS011;5592;49.234;7.268;2022-10-16T04:06:10;6.17;;;1.20;;
11078;SDS011;5592;49.234;7.268;2022-10-16T04:08:36;3.70;;;1.33;;
11078;SDS011;5592;49.234;7.268;2022-10-16T04:11:02;1.60;;;1.00;;
11078;SDS011;5592;49.234;7.268;2022-10-16T04:13:28;1.87;;;1.20;;
11078;SDS011;5592;49.234;7.268;2022-10-16T04:15:54;4.07;;;1.33;;
11078;SDS011;5592;49.234;7.268;2022-10-16T04:18:19;6.13;;;1.80;;
11078;SDS011;5592;49.234;7.268;2022-10-16T04:20:45;1.73;;;1.53;;
11078;SDS011;5592;49.234;7.268;2022-10-16T04:23:10;2.10;;;1.63;;
11078;SDS011;5592;49.234;7.268;2022-10-16T04:25:36;2.60;;;1.03;;
11078;SDS011;5592;49.234;7.268;2022-10-16T04:28:02;3.47;;;1.90;;
11078;SDS011;5592;49.234;7.268;2022-10-16T04:30:28;1.87;;;1.30;;
11078;SDS011;5592;49.234;7.268;2022-10-16T04:32:53;2.50;;;1.30;;
11078;SDS011;5592;49.234;7.268;2022-10-16T04:35:22;2.40;;;1.37;;
11078;SDS011;5592;49.234;7.268;2022-10-16T04:37:47;4.90;;;1.40;;
11078;SDS011;5592;49.234;7.268;2022-10-16T04:40:13;1.30;;;1.10;;
11078;SDS011;5592;49.234;7.268;2022-10-16T04:42:39;5.60;;;1.80;;
11078;SDS011;5592;49.234;7.268;2022-10-16T04:45:05;10.53;;;1.50;;
11078;SDS011;5592;49.234;7.268;2022-10-16T04:47:33;2.33;;;1.30;;
11078;SDS011;5592;49.234;7.268;2022-10-16T04:49:58;1.63;;;1.53;;
11078;SDS011;5592;49.234;7.268;2022-10-16T04:52:26;3.30;;;1.40;;
11078;SDS011;5592;49.234;7.268;2022-10-16T04:54:51;10.10;;;1.77;;
11078;SDS011;5592;49.234;7.268;2022-10-16T04:57:17;3.63;;;1.50;;
11078;SDS011;5592;49.234;7.268;2022-10-16T04:59:42;1.20;;;1.10;;
11078;SDS011;5592;49.234;7.268;2022-10-16T05:02:08;4.23;;;1.73;;
11078;SDS011;5592;49.234;7.268;2022-10-16T05:04:34;2.57;;;1.40;;
11078;SDS011;5592;49.234;7.268;2022-10-16T05:06:59;1.60;;;1.40;;
11078;SDS011;5592;49.234;7.268;2022-10-16T05:09:25;7.90;;;1.40;;
11078;SDS011;5592;49.234;7.268;2022-10-16T05:11:50;4.70;;;1.47;;
11078;SDS011;5592;49.234;7.268;2022-10-16T05:14:16;5.80;;;1.57;;
11078;SDS011;5592;49.234;7.268;2022-10-16T05:16:42;3.70;;;1.57;;
11078;SDS011;5592;49.234;7.268;2022-10-16T05:19:07;5.53;;;1.50;;
11078;SDS011;5592;49.234;7.268;2022-10-16T05:21:33;2.37;;;1.30;;
11078;SDS011;5592;49.234;7.268;2022-10-16T05:23:58;2.73;;;1.50;;
11078;SDS011;5592;49.234;7.268;2022-10-16T05:26:24;2.53;;;1.77;;
11078;SDS011;5592;49.234;7.268;2022-10-16T05:28:50;1.90;;;1.50;;
11078;SDS011;5592;49.234;7.268;2022-10-16T05:31:15;3.50;;;1.83;;
11078;SDS011;5592;49.234;7.268;2022-10-16T05:33:41;5.60;;;1.70;;
11078;SDS011;5592;49.234;7.268;2022-10-16T05:36:09;1.53;;;1.43;;
11078;SDS011;5592;49.234;7.268;2022-10-16T05:38:35;2.37;;;1.50;;
11078;SDS011;5592;49.234;7.268;2022-10-16T05:41:02;3.03;;;1.70;;
11078;SDS011;5592;49.234;7.268;2022-10-16T05:43:29;2.17;;;1.97;;
11078;SDS011;5592;49.234;7.268;2022-10-16T05:46:04;5.90;;;1.63;;
11078;SDS011;5592;49.234;7.268;2022-10-16T05:48:31;3.70;;;2.23;;
11078;SDS011;5592;49.234;7.268;2022-10-16T05:51:00;10.93;;;2.07;;
11078;SDS011;5592;49.234;7.268;2022-10-16T05:53:29;2.17;;;1.83;;
11078;SDS011;5592;49.234;7.268;2022-10-16T05:55:57;2.37;;;2.17;;
11078;SDS011;5592;49.234;7.268;2022-10-16T05:58:23;6.13;;;1.90;;
11078;SDS011;5592;49.234;7.268;2022-10-16T06:00:56;3.60;;;1.90;;
11078;SDS011;5592;49.234;7.268;2022-10-16T06:03:26;3.90;;;1.40;;
11078;SDS011;5592;49.234;7.268;2022-10-16T06:05:52;3.37;;;1.97;;
11078;SDS011;5592;49.234;7.268;2022-10-16T06:08:19;9.77;;;1.97;;
11078;SDS011;5592;49.234;7.268;2022-10-16T06:10:46;6.43;;;2.13;;
11078;SDS011;5592;49.234;7.268;2022-10-16T06:13:14;4.40;;;2.40;;
11078;SDS011;5592;49.234;7.268;2022-10-16T06:15:41;3.50;;;2.13;;
11078;SDS011;5592;49.234;7.268;2022-10-16T06:18:08;5.83;;;2.10;;
11078;SDS011;5592;49.234;7.268;2022-10-16T06:20:34;1.77;;;1.53;;
11078;SDS011;5592;49.234;7.268;2022-10-16T06:23:00;2.33;;;2.10;;
11078;SDS011;5592;49.234;7.268;2022-10-16T06:25:26;4.20;;;2.03;;
11078;SDS011;5592;49.234;7.268;2022-10-16T06:27:52;2.57;;;2.03;;
11078;SDS011;5592;49.234;7.268;2022-10-16T06:30:18;7.87;;;2.43;;
11078;SDS011;5592;49.234;7.268;2022-10-16T06:32:44;4.40;;;2.60;;
11078;SDS011;5592;49.234;7.268;2022-10-16T06:35:09;3.03;;;2.73;;
11078;SDS011;5592;49.234;7.268;2022-10-16T06:37:35;2.43;;;2.23;;
11078;SDS011;5592;49.234;7.268;2022-10-16T06:40:00;2.00;;;1.77;;
11078;SDS011;5592;49.234;7.268;2022-10-16T06:42:29;4.63;;;1.87;;
11078;SDS011;5592;49.234;7.268;2022-10-16T06:44:54;2.40;;;2.17;;
11078;SDS011;5592;49.234;7.268;2022-10-16T06:47:20;5.47;;;2.50;;
11078;SDS011;5592;49.234;7.268;2022-10-16T06:49:46;2.10;;;1.90;;
11078;SDS011;5592;49.234;7.268;2022-10-16T06:52:11;4.23;;;2.57;;
11078;SDS011;5592;49.234;7.268;2022-10-16T06:54:37;5.20;;;1.83;;
11078;SDS011;5592;49.234;7.268;2022-10-16T06:57:03;6.53;;;2.27;;
11078;SDS011;5592;49.234;7.268;2022-10-16T06:59:28;2.97;;;2.27;;
11078;SDS011;5592;49.234;7.268;2022-10-16T07:01:54;6.50;;;2.23;;
11078;SDS011;5592;49.234;7.268;2022-10-16T07:04:19;4.80;;;2.30;;
11078;SDS011;5592;49.234;7.268;2022-10-16T07:06:45;3.23;;;2.33;;
11078;SDS011;5592;49.234;7.268;2022-10-16T07:09:11;3.97;;;2.30;;
11078;SDS011;5592;49.234;7.268;2022-10-16T07:11:37;2.50;;;2.30;;
11078;SDS011;5592;49.234;7.268;2022-10-16T07:14:04;8.23;;;2.30;;
11078;SDS011;5592;49.234;7.268;2022-10-16T07:16:31;4.37;;;2.03;;
11078;SDS011;5592;49.234;7.268;2022-10-16T07:18:58;2.53;;;1.90;;
11078;SDS011;5592;49.234;7.268;2022-10-16T07:21:26;2.43;;;2.23;;
11078;SDS011;5592;49.234;7.268;2022-10-16T07:24:00;1.97;;;1.80;;
11078;SDS011;5592;49.234;7.268;2022-10-16T07:26:27;3.00;;;2.07;;
11078;SDS011;5592;49.234;7.268;2022-10-16T07:28:55;2.50;;;2.30;;
11078;SDS011;5592;49.234;7.268;2022-10-16T07:31:22;4.30;;;1.93;;
11078;SDS011;5592;49.234;7.268;2022-10-16T07:33:48;8.70;;;2.27;;
11078;SDS011;5592;49.234;7.268;2022-10-16T07:36:15;11.40;;;2.57;;
11078;SDS011;5592;49.234;7.268;2022-10-16T07:38:42;7.40;;;2.43;;
11078;SDS011;5592;49.234;7.268;2022-10-16T07:41:09;5.87;;;2.60;;
11078;SDS011;5592;49.234;7.268;2022-10-16T07:43:37;2.80;;;2.37;;
11078;SDS011;5592;49.234;7.268;2022-10-16T07:46:03;2.77;;;2.10;;
11078;SDS011;5592;49.234;7.268;2022-10-16T07:48:29;2.00;;;1.60;;
11078;SDS011;5592;49.234;7.268;2022-10-16T07:50:58;5.97;;;2.20;;
11078;SDS011;5592;49.234;7.268;2022-10-16T07:53:24;2.73;;;1.70;;
11078;SDS011;5592;49.234;7.268;2022-10-16T07:55:50;2.63;;;1.40;;
11078;SDS011;5592;49.234;7.268;2022-10-16T07:58:16;2.90;;;1.50;;
11078;SDS011;5592;49.234;7.268;2022-10-16T08:00:41;2.90;;;1.40;;
11078;SDS011;5592;49.234;7.268;2022-10-16T08:03:07;2.00;;;1.40;;
11078;SDS011;5592;49.234;7.268;2022-10-16T08:05:33;3.00;;;1.37;;
11078;SDS011;5592;49.234;7.268;2022-10-16T08:07:59;4.73;;;1.70;;
11078;SDS011;5592;49.234;7.268;2022-10-16T08:10:26;2.53;;;1.90;;
11078;SDS011;5592;49.234;7.268;2022-10-16T08:12:52;2.33;;;2.13;;
11078;SDS011;5592;49.234;7.268;2022-10-16T08:15:18;5.30;;;2.10;;
11078;SDS011;5592;49.234;7.268;2022-10-16T08:17:45;6.20;;;1.87;;
11078;SDS011;5592;49.234;7.268;2022-10-16T08:20:23;2.30;;;1.90;;
11078;SDS011;5592;49.234;7.268;2022-10-16T08:22:49;2.10;;;1.90;;
11078;SDS011;5592;49.234;7.268;2022-10-16T08:25:15;1.60;;;1.50;;
11078;SDS011;5592;49.234;7.268;2022-10-16T08:27:41;2.43;;;1.80;;
11078;SDS011;5592;49.234;7.268;2022-10-16T08:30:06;8.23;;;2.20;;
11078;SDS011;5592;49.234;7.268;2022-10-16T08:32:33;6.33;;;2.10;;
11078;SDS011;5592;49.234;7.268;2022-10-16T08:34:59;2.53;;;2.13;;
11078;SDS011;5592;49.234;7.268;2022-10-16T08:37:24;5.23;;;2.07;;
11078;SDS011;5592;49.234;7.268;2022-10-16T08:39:54;3.80;;;1.60;;
11078;SDS011;5592;49.234;7.268;2022-10-16T08:47:39;2.10;;;1.87;;
11078;SDS011;5592;49.234;7.268;2022-10-16T08:50:13;5.83;;;2.20;;
11078;SDS011;5592;49.234;7.268;2022-10-16T08:52:46;4.33;;;2.20;;
11078;SDS011;5592;49.234;7.268;2022-10-16T08:58:26;4.30;;;1.87;;
11078;SDS011;5592;49.234;7.268;2022-10-16T09:00:54;1.80;;;1.60;;
11078;SDS011;5592;49.234;7.268;2022-10-16T09:06:43;6.60;;;1.93;;
11078;SDS011;5592;49.234;7.268;2022-10-16T09:18:15;5.77;;;1.90;;
11078;SDS011;5592;49.234;7.268;2022-10-16T09:23:36;3.27;;;1.90;;
11078;SDS011;5592;49.234;7.268;2022-10-16T09:26:09;7.20;;;1.77;;
11078;SDS011;5592;49.234;7.268;2022-10-16T09:28:37;5.83;;;2.07;;
11078;SDS011;5592;49.234;7.268;2022-10-16T09:31:03;6.67;;;2.17;;
11078;SDS011;5592;49.234;7.268;2022-10-16T09:33:29;5.73;;;1.80;;
11078;SDS011;5592;49.234;7.268;2022-10-16T09:36:00;6.53;;;2.03;;
11078;SDS011;5592;49.234;7.268;2022-10-16T09:38:34;4.60;;;2.30;;
11078;SDS011;5592;49.234;7.268;2022-10-16T09:41:02;5.93;;;2.00;;
11078;SDS011;5592;49.234;7.268;2022-10-16T09:43:39;4.63;;;1.90;;
11078;SDS011;5592;49.234;7.268;2022-10-16T09:46:07;3.90;;;1.80;;
11078;SDS011;5592;49.234;7.268;2022-10-16T09:48:49;6.27;;;1.80;;
11078;SDS011;5592;49.234;7.268;2022-10-16T09:51:37;3.50;;;1.80;;
11078;SDS011;5592;49.234;7.268;2022-10-16T09:56:44;2.40;;;2.10;;
11078;SDS011;5592;49.234;7.268;2022-10-16T09:59:18;5.97;;;1.73;;
11078;SDS011;5592;49.234;7.268;2022-10-16T10:01:51;4.63;;;1.73;;
11078;SDS011;5592;49.234;7.268;2022-10-16T10:04:20;2.10;;;1.90;;
11078;SDS011;5592;49.234;7.268;2022-10-16T10:06:49;2.80;;;2.23;;
11078;SDS011;5592;49.234;7.268;2022-10-16T10:12:04;3.70;;;2.20;;
11078;SDS011;5592;49.234;7.268;2022-10-16T10:14:37;4.07;;;2.47;;
11078;SDS011;5592;49.234;7.268;2022-10-16T10:17:23;4.23;;;2.53;;
11078;SDS011;5592;49.234;7.268;2022-10-16T10:20:16;6.60;;;2.70;;
11078;SDS011;5592;49.234;7.268;2022-10-16T10:22:53;6.13;;;2.50;;
11078;SDS011;5592;49.234;7.268;2022-10-16T10:31:06;5.63;;;2.57;;
11078;SDS011;5592;49.234;7.268;2022-10-16T10:38:58;10.90;;;3.30;;
11078;SDS011;5592;49.234;7.268;2022-10-16T10:50:14;4.77;;;2.33;;
11078;SDS011;5592;49.234;7.268;2022-10-16T10:57:54;3.77;;;2.67;;
11078;SDS011;5592;49.234;7.268;2022-10-16T11:00:30;3.30;;;2.10;;
11078;SDS011;5592;49.234;7.268;2022-10-16T11:08:50;2.87;;;2.00;;
11078;SDS011;5592;49.234;7.268;2022-10-16T11:11:23;8.27;;;2.60;;
11078;SDS011;5592;49.234;7.268;2022-10-16T11:16:42;3.50;;;1.93;;
11078;SDS011;5592;49.234;7.268;2022-10-16T11:21:45;4.20;;;2.43;;
11078;SDS011;5592;49.234;7.268;2022-10-16T11:24:20;5.13;;;2.20;;
11078;SDS011;5592;49.234;7.268;2022-10-16T11:26:52;9.33;;;2.50;;
11078;SDS011;5592;49.234;7.268;2022-10-16T11:29:22;6.00;;;2.80;;
11078;SDS011;5592;49.234;7.268;2022-10-16T11:31:59;2.30;;;1.83;;
11078;SDS011;5592;49.234;7.268;2022-10-16T11:34:36;3.00;;;1.90;;
11078;SDS011;5592;49.234;7.268;2022-10-16T11:39:37;6.87;;;2.00;;
11078;SDS011;5592;49.234;7.268;2022-10-16T11:47:48;5.63;;;2.30;;
11078;SDS011;5592;49.234;7.268;2022-10-16T11:50:22;2.20;;;1.77;;
11078;SDS011;5592;49.234;7.268;2022-10-16T11:55:36;3.73;;;2.13;;
11078;SDS011;5592;49.234;7.268;2022-10-16T11:58:05;8.50;;;2.30;;
11078;SDS011;5592;49.234;7.268;2022-10-16T12:08:40;3.77;;;2.07;;
11078;SDS011;5592;49.234;7.268;2022-10-16T12:14:05;5.07;;;2.47;;
11078;SDS011;5592;49.234;7.268;2022-10-16T12:16:38;6.50;;;1.80;;
11078;SDS011;5592;49.234;7.268;2022-10-16T12:19:16;3.20;;;2.00;;
11078;SDS011;5592;49.234;7.268;2022-10-16T12:21:43;5.60;;;2.00;;
11078;SDS011;5592;49.234;7.268;2022-10-16T12:24:20;6.47;;;2.33;;
11078;SDS011;5592;49.234;7.268;2022-10-16T12:26:53;3.13;;;1.90;;
11078;SDS011;5592;49.234;7.268;2022-10-16T12:31:50;8.07;;;2.43;;
11078;SDS011;5592;49.234;7.268;2022-10-16T12:34:22;4.63;;;2.30;;
11078;SDS011;5592;49.234;7.268;2022-10-16T12:36:54;9.20;;;2.20;;
11078;SDS011;5592;49.234;7.268;2022-10-16T12:39:24;6.17;;;2.40;;
11078;SDS011;5592;49.234;7.268;2022-10-16T12:42:02;4.03;;;2.57;;
11078;SDS011;5592;49.234;7.268;2022-10-16T12:44:34;3.83;;;2.20;;
11078;SDS011;5592;49.234;7.268;2022-10-16T12:47:00;5.23;;;2.00;;
11078;SDS011;5592;49.234;7.268;2022-10-16T12:51:57;2.90;;;2.03;;
11078;SDS011;5592;49.234;7.268;2022-10-16T12:54:30;5.70;;;2.40;;
11078;SDS011;5592;49.234;7.268;2022-10-16T13:05:20;2.23;;;2.03;;
11078;SDS011;5592;49.234;7.268;2022-10-16T13:08:01;2.70;;;2.30;;
11078;SDS011;5592;49.234;7.268;2022-10-16T13:16:24;9.20;;;2.33;;
11078;SDS011;5592;49.234;7.268;2022-10-16T13:27:14;4.67;;;2.30;;
11078;SDS011;5592;49.234;7.268;2022-10-16T13:29:52;2.33;;;2.10;;
11078;SDS011;5592;49.234;7.268;2022-10-16T13:32:25;2.83;;;2.20;;
11078;SDS011;5592;49.234;7.268;2022-10-16T13:34:52;7.53;;;2.30;;
11078;SDS011;5592;49.234;7.268;2022-10-16T13:37:20;6.90;;;2.60;;
11078;SDS011;5592;49.234;7.268;2022-10-16T13:39:50;3.90;;;2.20;;
11078;SDS011;5592;49.234;7.268;2022-10-16T13:42:22;8.20;;;2.17;;
11078;SDS011;5592;49.234;7.268;2022-10-16T13:44:53;9.43;;;2.23;;
11078;SDS011;5592;49.234;7.268;2022-10-16T13:47:24;2.70;;;2.10;;
11078;SDS011;5592;49.234;7.268;2022-10-16T13:50:01;6.90;;;2.27;;
11078;SDS011;5592;49.234;7.268;2022-10-16T13:52:29;3.40;;;2.30;;
11078;SDS011;5592;49.234;7.268;2022-10-16T13:54:55;12.30;;;2.77;;
11078;SDS011;5592;49.234;7.268;2022-10-16T13:57:22;3.00;;;1.83;;
11078;SDS011;5592;49.234;7.268;2022-10-16T13:59:49;6.90;;;1.97;;
11078;SDS011;5592;49.234;7.268;2022-10-16T14:04:44;3.93;;;2.20;;
11078;SDS011;5592;49.234;7.268;2022-10-16T14:07:13;7.07;;;2.47;;
11078;SDS011;5592;49.234;7.268;2022-10-16T14:09:47;2.03;;;1.83;;
11078;SDS011;5592;49.234;7.268;2022-10-16T14:12:14;2.63;;;2.43;;
11078;SDS011;5592;49.234;7.268;2022-10-16T14:14:45;4.10;;;2.87;;
11078;SDS011;5592;49.234;7.268;2022-10-16T14:17:17;4.90;;;2.30;;
11078;SDS011;5592;49.234;7.268;2022-10-16T14:19:50;3.30;;;2.70;;
11078;SDS011;5592;49.234;7.268;2022-10-16T14:22:37;5.70;;;2.73;;
11078;SDS011;5592;49.234;7.268;2022-10-16T14:28:04;6.10;;;2.37;;
11078;SDS011;5592;49.234;7.268;2022-10-16T14:30:57;3.93;;;2.83;;
11078;SDS011;5592;49.234;7.268;2022-10-16T14:36:17;4.57;;;2.40;;
11078;SDS011;5592;49.234;7.268;2022-10-16T14:39:00;6.20;;;3.10;;
11078;SDS011;5592;49.234;7.268;2022-10-16T14:41:27;4.13;;;2.70;;
11078;SDS011;5592;49.234;7.268;2022-10-16T14:43:54;4.93;;;3.30;;
11078;SDS011;5592;49.234;7.268;2022-10-16T14:46:36;8.20;;;3.13;;
11078;SDS011;5592;49.234;7.268;2022-10-16T14:49:05;3.20;;;2.43;;
11078;SDS011;5592;49.234;7.268;2022-10-16T14:51:38;4.50;;;3.20;;
11078;SDS011;5592;49.234;7.268;2022-10-16T14:54:07;5.13;;;3.40;;
11078;SDS011;5592;49.234;7.268;2022-10-16T14:56:55;5.73;;;3.37;;
11078;SDS011;5592;49.234;7.268;2022-10-16T15:02:00;9.20;;;3.97;;
11078;SDS011;5592;49.234;7.268;2022-10-16T15:04:39;4.43;;;3.33;;
11078;SDS011;5592;49.234;7.268;2022-10-16T15:07:06;8.63;;;3.73;;
11078;SDS011;5592;49.234;7.268;2022-10-16T15:09:35;6.90;;;3.73;;
11078;SDS011;5592;49.234;7.268;2022-10-16T15:12:00;9.07;;;3.77;;
11078;SDS011;5592;49.234;7.268;2022-10-16T15:14:26;8.60;;;4.00;;
11078;SDS011;5592;49.234;7.268;2022-10-16T15:16:52;6.50;;;3.87;;
11078;SDS011;5592;49.234;7.268;2022-10-16T15:19:17;5.90;;;3.70;;
11078;SDS011;5592;49.234;7.268;2022-10-16T15:21:46;4.77;;;3.53;;
11078;SDS011;5592;49.234;7.268;2022-10-16T15:24:13;4.87;;;3.40;;
11078;SDS011;5592;49.234;7.268;2022-10-16T15:26:38;4.00;;;3.60;;
11078;SDS011;5592;49.234;7.268;2022-10-16T15:29:04;5.57;;;3.73;;
11078;SDS011;5592;49.234;7.268;2022-10-16T15:31:30;5.80;;;3.90;;
11078;SDS011;5592;49.234;7.268;2022-10-16T15:33:56;5.33;;;3.60;;
11078;SDS011;5592;49.234;7.268;2022-10-16T15:36:30;5.97;;;3.73;;
11078;SDS011;5592;49.234;7.268;2022-10-16T15:38:59;7.17;;;3.90;;
11078;SDS011;5592;49.234;7.268;2022-10-16T15:41:24;4.80;;;3.80;;
11078;SDS011;5592;49.234;7.268;2022-10-16T15:43:50;5.53;;;3.63;;
11078;SDS011;5592;49.234;7.268;2022-10-16T15:46:20;8.47;;;3.80;;
11078;SDS011;5592;49.234;7.268;2022-10-16T15:48:47;8.80;;;3.87;;
11078;SDS011;5592;49.234;7.268;2022-10-16T15:51:13;5.53;;;4.20;;
11078;SDS011;5592;49.234;7.268;2022-10-16T15:53:39;6.63;;;4.07;;
11078;SDS011;5592;49.234;7.268;2022-10-16T15:56:05;6.00;;;4.03;;
11078;SDS011;5592;49.234;7.268;2022-10-16T15:58:32;6.77;;;4.40;;
11078;SDS011;5592;49.234;7.268;2022-10-16T16:00:59;6.77;;;4.83;;
11078;SDS011;5592;49.234;7.268;2022-10-16T16:03:27;8.13;;;4.10;;
11078;SDS011;5592;49.234;7.268;2022-10-16T16:05:56;9.47;;;5.00;;
11078;SDS011;5592;49.234;7.268;2022-10-16T16:08:22;8.53;;;5.13;;
11078;SDS011;5592;49.234;7.268;2022-10-16T16:11:06;6.87;;;5.00;;
11078;SDS011;5592;49.234;7.268;2022-10-16T16:13:36;10.33;;;6.00;;
11078;SDS011;5592;49.234;7.268;2022-10-16T16:16:06;9.60;;;5.90;;
11078;SDS011;5592;49.234;7.268;2022-10-16T16:18:37;8.50;;;5.27;;
11078;SDS011;5592;49.234;7.268;2022-10-16T16:21:03;8.20;;;5.63;;
11078;SDS011;5592;49.234;7.268;2022-10-16T16:23:29;8.73;;;5.27;;
11078;SDS011;5592;49.234;7.268;2022-10-16T16:26:29;7.33;;;5.43;;
11078;SDS011;5592;49.234;7.268;2022-10-16T16:28:51;8.93;;;5.60;;
11078;SDS011;5592;49.234;7.268;2022-10-16T16:31:18;11.47;;;5.70;;
11078;SDS011;5592;49.234;7.268;2022-10-16T16:33:44;6.43;;;5.77;;
11078;SDS011;5592;49.234;7.268;2022-10-16T16:36:10;7.63;;;5.47;;
11078;SDS011;5592;49.234;7.268;2022-10-16T16:38:35;12.13;;;5.80;;
11078;SDS011;5592;49.234;7.268;2022-10-16T16:41:11;10.40;;;6.40;;
11078;SDS011;5592;49.234;7.268;2022-10-16T16:43:44;13.40;;;5.83;;
11078;SDS011;5592;49.234;7.268;2022-10-16T16:46:14;14.93;;;6.23;;
11078;SDS011;5592;49.234;7.268;2022-10-16T16:48:40;12.00;;;6.07;;
11078;SDS011;5592;49.234;7.268;2022-10-16T16:51:07;11.93;;;7.03;;
11078;SDS011;5592;49.234;7.268;2022-10-16T16:53:44;9.03;;;6.40;;
11078;SDS011;5592;49.234;7.268;2022-10-16T16:56:12;10.40;;;6.57;;
11078;SDS011;5592;49.234;7.268;2022-10-16T16:58:39;7.30;;;6.30;;
11078;SDS011;5592;49.234;7.268;2022-10-16T17:01:05;8.70;;;7.13;;
11078;SDS011;5592;49.234;7.268;2022-10-16T17:03:32;7.70;;;6.27;;
11078;SDS011;5592;49.234;7.268;2022-10-16T17:06:00;9.27;;;6.63;;
11078;SDS011;5592;49.234;7.268;2022-10-16T17:08:27;13.10;;;7.50;;
11078;SDS011;5592;49.234;7.268;2022-10-16T17:10:53;9.33;;;7.50;;
11078;SDS011;5592;49.234;7.268;2022-10-16T17:13:23;10.17;;;7.30;;
11078;SDS011;5592;49.234;7.268;2022-10-16T17:15:51;10.33;;;7.20;;
11078;SDS011;5592;49.234;7.268;2022-10-16T17:18:17;12.93;;;8.30;;
11078;SDS011;5592;49.234;7.268;2022-10-16T17:20:44;15.10;;;6.97;;
11078;SDS011;5592;49.234;7.268;2022-10-16T17:23:10;10.70;;;8.13;;
11078;SDS011;5592;49.234;7.268;2022-10-16T17:25:36;8.47;;;6.90;;
11078;SDS011;5592;49.234;7.268;2022-10-16T17:28:03;12.87;;;8.20;;
11078;SDS011;5592;49.234;7.268;2022-10-16T17:30:29;13.50;;;9.03;;